Latest Weather Observations for Bourke

IDN60801

Issued at 10:33 pm EDT Monday 19 November 2018 (issued every 10 minutes, with the page automatically refreshed every 10 minutes)

About weather observations | Map of weather stations | Latest weather observations for NSW | Other Formats
Station Details ID: 048245 Name: BOURKE AIRPORT AWS Lat: -30.04 Lon: 145.95 Height: 107.3 m
Data from the previous 72 hours. | See also: Recent months at Bourke
Date/Time
EDT
Temp
°C
App
Temp
°C
Dew
Point
°C
Rel
Hum
%
Delta-T
°C
Wind Press
QNH
hPa
Press
MSL
hPa
Rain since
9am
mm
Dir  Spd
km/h
Gust
km/h
Spd
kts
Gust
kts
19/10:30pm 27.6 24.8 14.3 44 8.0 ENE 22 28 12 15 1010.2 1009.6 0.0
19/10:00pm 28.3 24.2 13.8 41 8.7 ENE 28 39 15 21 1009.9 1009.3 0.0
19/09:30pm 29.5 26.9 12.0 34 10.2 E 17 32 9 17 1009.2 1008.7 0.0
19/09:00pm 30.2 27.2 12.1 32 10.7 E 19 28 10 15 1008.8 1008.3 0.0
19/08:30pm 30.8 27.5 11.7 31 11.2 E 20 26 11 14 1008.7 1008.2 0.0
19/08:00pm 31.3 29.4 11.7 30 11.5 E 13 17 7 9 1008.5 1008.0 0.0
19/07:30pm 32.1 29.8 11.8 29 12.0 ENE 15 20 8 11 1008.4 1007.9 0.0
19/07:00pm 32.7 30.4 11.8 28 12.4 E 15 22 8 12 1008.1 1007.6 0.0
19/06:30pm 33.3 30.3 11.8 27 12.7 E 19 26 10 14 1008.1 1007.6 0.0
19/06:00pm 33.7 31.7 11.5 26 13.1 ENE 13 19 7 10 1008.1 1007.6 0.0
19/05:30pm 33.6 31.2 11.5 26 13.1 NE 15 24 8 13 1008.4 1007.9 0.0
19/05:00pm 34.0 31.3 11.8 26 13.2 ENE 17 26 9 14 1008.6 1008.1 0.0
19/04:30pm 33.6 31.2 11.5 26 13.1 NE 15 26 8 14 1008.9 1008.4 0.0
19/04:00pm 33.3 30.8 12.3 28 12.6 NE 17 26 9 14 1009.3 1008.8 0.0
19/03:30pm 33.9 32.1 13.4 29 12.5 E 15 28 8 15 1009.8 1009.2 0.0
19/03:00pm 31.9 29.0 12.2 30 11.7 NE 19 32 10 17 1010.4 1009.8 0.0
19/02:30pm 32.7 30.4 12.9 30 11.9 E 17 26 9 14 1010.9 1010.3 0.0
19/02:00pm 32.8 30.8 13.9 31 11.5 ENE 17 28 9 15 1011.3 1010.7 0.0
19/01:30pm 31.9 28.9 13.6 32 11.1 ENE 22 35 12 19 1011.8 1011.2 0.0
19/01:00pm 30.7 28.0 13.0 33 10.6 NE 19 32 10 17 1012.4 1011.8 0.0
19/12:30pm 30.6 28.4 14.3 37 9.9 NE 19 35 10 19 1013.0 1012.5 0.0
19/12:00pm 29.3 25.6 13.9 39 9.3 NE 26 37 14 20 1013.7 1013.2 0.0
19/11:30am 27.7 24.0 14.0 43 8.2 NE 26 39 14 21 1014.0 1013.5 0.0
19/11:00am 28.1 24.7 14.7 44 8.1 NE 26 39 14 21 1014.3 1013.8 0.0
19/10:30am 27.7 23.8 14.3 43 8.1 NE 28 39 15 21 1014.5 1014.0 0.0
19/10:00am 26.8 23.1 14.9 48 7.2 NE 28 41 15 22 1014.8 1014.3 0.0
19/09:30am 26.1 21.7 15.2 51 6.6 NE 32 44 17 24 1015.0 1014.5 0.0
19/09:00am 24.9 19.9 15.0 54 6.0 ENE 35 50 19 27 1015.1 1014.6 0.0
19/08:52am 24.8 20.2 14.6 53 6.1 ENE 32 50 17 27 1015.0 1014.5 0.0
19/08:30am 24.0 19.0 15.0 57 5.4 ENE 35 46 19 25 1015.0 1014.5 0.0
19/08:00am 23.8 19.2 15.0 57 5.3 ENE 33 46 18 25 1014.7 1014.2 0.0
19/07:30am 23.5 19.2 15.3 60 4.9 ENE 32 44 17 24 1014.4 1013.9 0.0
19/07:00am 23.0 19.2 14.8 60 4.9 ENE 28 39 15 21 1014.1 1013.6 0.0
19/06:30am 22.8 19.1 14.9 61 4.7 ENE 28 46 15 25 1013.5 1013.0 0.0
19/06:25am 22.8 19.1 14.9 61 4.7 ENE 28 46 15 25 1013.5 1013.0 0.0
19/06:00am 22.9 18.7 14.7 60 4.9 ENE 30 44 16 24 1013.1 1012.6 0.0
19/05:30am 23.2 18.6 14.5 58 5.2 ENE 32 46 17 25 1012.6 1012.0 0.0
19/05:00am 23.7 20.3 14.7 57 5.4 ENE 26 37 14 20 1012.3 1011.7 0.0
19/04:30am 24.1 20.2 14.5 55 5.7 ENE 28 43 15 23 1011.9 1011.3 0.0
19/04:00am 24.4 21.7 14.5 54 5.9 ENE 22 30 12 16 1011.8 1011.2 0.0
19/03:30am 24.6 21.8 14.4 53 6.1 E 22 28 12 15 1011.6 1011.0 0.0
19/03:00am 24.9 21.3 10.4 40 8.1 ESE 20 32 11 17 1011.4 1010.8 0.0
19/02:30am 24.9 20.6 8.0 34 9.0 SE 20 28 11 15 1011.6 1011.0 0.0
19/02:00am 25.5 20.9 8.1 33 9.4 ESE 22 33 12 18 1011.9 1011.3 0.0
19/01:30am 25.6 21.3 7.7 32 9.6 SE 20 30 11 16 1012.2 1011.6 0.0
19/01:00am 25.3 21.6 7.9 33 9.3 SE 17 26 9 14 1012.5 1011.9 0.0
19/12:30am 24.4 21.6 7.1 33 9.1 SE 11 15 6 8 1012.6 1012.0 0.0
19/12:00am 25.5 22.4 7.1 31 9.7 SE 13 17 7 9 1012.7 1012.2 0.0
 
Date/Time
EDT
Temp
°C
App
Temp
°C
Dew
Point
°C
Rel
Hum
%
Delta-T
°C
Wind Press
QNH
hPa
Press
MSL
hPa
Rain since
9am
mm
Dir  Spd
km/h
Gust
km/h
Spd
kts
Gust
kts
18/11:30pm 24.9 22.3 6.1 30 9.7 SE 9 13 5 7 1012.7 1012.2 0.0
18/11:00pm 25.5 22.4 5.7 28 10.2 SSE 11 13 6 7 1012.6 1012.0 0.0
18/10:30pm 25.2 22.6 5.9 29 10.0 SE 9 11 5 6 1012.5 1011.9 0.0
18/10:00pm 25.2 22.7 6.4 30 9.8 SE 9 11 5 6 1012.3 1011.7 0.0
18/09:30pm 25.5 22.9 6.2 29 10.0 SSE 9 9 5 5 1011.9 1011.3 0.0
18/09:00pm 26.6 25.2 5.5 26 10.9 E 2 6 1 3 1011.7 1011.1 0.0
18/08:30pm 27.7 25.4 4.7 23 11.8 E 6 6 3 3 1011.5 1010.9 0.0
18/08:00pm 29.4 27.1 4.8 21 12.8 E 6 7 3 4 1011.3 1010.7 0.0
18/07:30pm 31.2 27.8 4.1 18 14.0 SSE 11 13 6 7 1011.1 1010.5 0.0
18/07:00pm 31.8 28.9 4.6 18 14.3 SSE 9 15 5 8 1010.9 1010.3 0.0
18/06:30pm 32.1 28.9 3.1 16 14.9 ESE 9 13 5 7 1010.7 1010.1 0.0
18/06:00pm 32.8 29.3 3.7 16 15.1 SSW 11 22 6 12 1010.7 1010.1 0.0
18/05:30pm 32.8 30.7 3.7 16 15.1 W 4 11 2 6 1010.9 1010.3 0.0
18/05:00pm 32.6 29.3 2.6 15 15.3 SE 9 19 5 10 1011.1 1010.5 0.0
18/04:30pm 32.8 30.3 4.6 17 14.9 SSE 7 15 4 8 1011.4 1010.8 0.0
18/04:00pm 32.4 28.8 5.1 18 14.5 SSE 13 28 7 15 1011.8 1011.2 0.0
18/03:30pm 32.3 29.6 5.7 19 14.2 S 9 13 5 7 1012.2 1011.6 0.0
18/03:00pm 32.1 28.1 3.1 16 14.9 E 13 22 7 12 1012.7 1012.2 0.0
18/02:30pm 31.9 26.7 3.8 17 14.6 SSE 20 30 11 16 1013.2 1012.7 0.0
18/02:00pm 31.7 26.9 4.5 18 14.2 ENE 19 26 10 14 1013.6 1013.1 0.0
18/01:30pm 31.5 27.4 8.5 24 12.8 E 20 30 11 16 1014.0 1013.5 0.0
18/01:00pm 31.2 26.5 7.6 23 13.0 ESE 22 32 12 17 1014.5 1014.0 0.0
18/12:30pm 30.0 26.3 9.5 28 11.5 E 19 30 10 16 1014.7 1014.2 0.0
18/12:00pm 29.7 26.7 10.8 31 10.8 ENE 17 28 9 15 1015.0 1014.5 0.0
18/11:30am 29.0 25.4 10.6 32 10.5 E 20 37 11 20 1015.5 1015.0 0.0
18/11:00am 28.0 24.3 11.5 35 9.5 E 22 35 12 19 1015.9 1015.4 0.0
18/10:30am 27.5 23.5 11.9 38 9.0 E 24 41 13 22 1015.9 1015.4 0.0
18/10:00am 26.6 22.4 12.3 41 8.3 E 26 35 14 19 1015.9 1015.4 0.0
18/09:30am 25.5 20.8 12.0 43 7.8 ENE 28 41 15 22 1016.0 1015.5 0.0
18/09:00am 24.8 19.6 11.7 44 7.5 E 30 43 16 23 1015.8 1015.3 0.0
18/08:30am 24.1 19.6 11.4 45 7.2 E 26 35 14 19 1015.6 1015.1 0.0
18/08:00am 23.1 18.2 11.2 47 6.7 E 28 39 15 21 1015.2 1014.7 0.0
18/07:30am 22.7 18.5 11.1 48 6.5 ESE 24 37 13 20 1015.0 1014.5 0.0
18/07:00am 21.9 18.0 10.7 49 6.2 ESE 22 35 12 19 1014.7 1014.2 0.0
18/06:30am 21.3 17.5 9.9 48 6.2 ESE 20 26 11 14 1014.4 1013.9 0.0
18/06:00am 21.3 17.2 8.6 44 6.7 ESE 20 30 11 16 1014.3 1013.8 0.0
18/05:30am 21.2 16.9 7.1 40 7.3 ESE 19 24 10 13 1013.9 1013.4 0.0
18/05:00am 19.4 15.4 2.7 33 7.8 ESE 13 17 7 9 1013.7 1013.2 0.0
18/04:30am 18.0 13.7 -1.8 26 8.3 SE 11 13 6 7 1013.6 1013.1 0.0
18/04:00am 18.9 13.8 -2.1 24 8.8 SSE 15 19 8 10 1013.4 1012.9 0.0
18/03:30am 19.6 14.4 -2.7 22 9.3 SSE 15 19 8 10 1013.2 1012.7 0.0
18/03:00am 19.4 15.0 -2.2 23 9.1 SSE 11 15 6 8 1013.3 1012.8 0.0
18/02:30am 19.7 15.3 -2.6 22 9.4 SSE 11 13 6 7 1013.2 1012.7 0.0
18/02:00am 21.1 16.7 -2.7 20 10.1 SSE 11 15 6 8 1013.4 1012.9 0.0
18/01:30am 21.8 17.0 -2.8 19 10.5 SE 13 20 7 11 1013.6 1013.1 0.0
18/01:00am 21.1 17.1 -2.0 21 9.9 SE 9 13 5 7 1013.7 1013.2 0.0
18/12:30am 20.9 16.9 -2.2 21 9.9 SE 9 11 5 6 1013.9 1013.4 0.0
18/12:00am 21.5 17.5 -2.4 20 10.2 SSE 9 11 5 6 1014.1 1013.6 0.0
 
Date/Time
EDT
Temp
°C
App
Temp
°C
Dew
Point
°C
Rel
Hum
%
Delta-T
°C
Wind Press
QNH
hPa
Press
MSL
hPa
Rain since
9am
mm
Dir  Spd
km/h
Gust
km/h
Spd
kts
Gust
kts
17/11:30pm 22.4 18.3 -3.1 18 10.9 SSE 9 11 5 6 1014.1 1013.6 0.0
17/11:00pm 24.2 19.6 -4.0 15 12.0 SSE 11 13 6 7 1014.1 1013.6 0.0
17/10:30pm 25.3 20.3 -4.1 14 12.6 S 13 17 7 9 1014.0 1013.5 0.0
17/10:00pm 25.2 20.6 -4.2 14 12.6 S 11 15 6 8 1013.7 1013.2 0.0
17/09:30pm 26.4 21.4 -4.2 13 13.2 S 13 17 7 9 1013.4 1012.9 0.0
17/09:00pm 26.4 22.2 -4.2 13 13.2 S 9 11 5 6 1013.1 1012.6 0.0
17/08:30pm 27.3 23.1 -3.5 13 13.6 SSW 9 13 5 7 1012.9 1012.4 0.0
17/08:00pm 28.6 24.1 -3.6 12 14.4 SSW 11 15 6 8 1012.6 1012.0 0.0
17/07:30pm 30.9 25.5 -4.2 10 15.8 SSW 15 20 8 11 1012.3 1011.7 0.0
17/07:00pm 31.7 26.0 -3.6 10 16.1 SSW 17 22 9 12 1012.0 1011.4 0.0
17/06:30pm 32.4 27.2 -3.1 10 16.4 SSW 15 24 8 13 1011.8 1011.2 0.0
17/06:00pm 32.5 26.9 -3.0 10 16.5 S 17 26 9 14 1011.8 1011.2 0.0
17/05:30pm 32.8 26.7 -4.2 9 16.9 SSW 19 30 10 16 1011.8 1011.2 0.0
17/05:00pm 32.8 27.2 -2.8 10 16.6 SSW 17 24 9 13 1011.9 1011.3 0.0
17/04:30pm 32.9 27.7 -2.7 10 16.7 S 15 26 8 14 1012.1 1011.5 0.0
17/04:00pm 32.7 28.5 -4.3 9 16.8 S 9 20 5 11 1012.3 1011.7 0.0
17/03:30pm 32.4 26.2 -4.5 9 16.7 SSE 19 30 10 16 1012.7 1012.2 0.0
17/03:00pm 32.9 27.2 -4.1 9 16.9 SSE 17 24 9 13 1013.2 1012.7 0.0
17/02:30pm 32.3 26.7 -3.2 10 16.4 SSW 17 24 9 13 1013.7 1013.2 0.0
17/02:00pm 31.6 26.9 -5.1 9 16.3 SSE 11 20 6 11 1014.0 1013.5 0.0
17/01:30pm 31.6 26.3 -3.7 10 16.1 SSE 15 28 8 15 1014.4 1013.9 0.0
17/01:00pm 31.5 27.3 -3.8 10 16.0 SSW 9 26 5 14 1014.9 1014.4 0.0
17/12:30pm 31.1 25.5 -2.8 11 15.6 S 17 28 9 15 1015.3 1014.8 0.0
17/12:00pm 30.6 25.3 -3.2 11 15.4 SE 15 32 8 17 1015.7 1015.2 0.0
17/11:30am 29.4 24.7 -5.4 10 15.1 SE 11 24 6 13 1016.1 1015.6 0.0
17/11:00am 29.5 25.3 -4.0 11 14.9 SE 9 20 5 11 1016.3 1015.8 0.0
17/10:30am 29.0 22.8 -4.4 11 14.7 SSE 19 26 10 14 1016.5 1016.0 0.0
17/10:00am 28.1 21.7 -5.1 11 14.3 SE 20 32 11 17 1016.5 1016.0 0.0
17/09:30am 27.2 20.6 -3.6 13 13.6 SE 22 28 12 15 1016.5 1016.0 0.0
17/09:00am 25.3 19.5 -1.5 17 12.1 SE 19 26 10 14 1016.4 1015.9 0.0
17/08:30am 23.7 18.2 -2.0 18 11.3 SSE 17 24 9 13 1016.4 1015.9 0.0
17/08:00am 21.5 16.7 -2.4 20 10.2 SSE 13 19 7 10 1016.0 1015.5 0.0
17/07:30am 20.1 15.1 -4.2 19 9.9 SSE 13 19 7 10 1015.8 1015.3 0.0
17/07:00am 19.3 14.8 -3.5 21 9.4 SSE 11 15 6 8 1015.5 1015.0 0.0
17/06:30am 18.5 13.9 -4.2 21 9.1 S 11 13 6 7 1015.2 1014.7 0.0
17/06:00am 18.2 13.6 -4.5 21 9.0 S 11 13 6 7 1014.8 1014.3 0.0
17/05:30am 18.8 13.8 -4.0 21 9.2 S 13 15 7 8 1014.5 1014.0 0.0
17/05:00am 18.6 14.4 -3.5 22 9.0 S 9 11 5 6 1014.4 1013.9 0.0
17/04:30am 19.3 14.7 -4.2 20 9.5 S 11 13 6 7 1014.1 1013.6 0.0
17/04:00am 20.3 15.3 -4.0 19 10.0 S 13 17 7 9 1014.0 1013.5 0.0
17/03:30am 21.1 15.4 -3.4 19 10.3 S 17 22 9 12 1013.9 1013.4 0.0
17/03:00am 21.7 16.5 -2.9 19 10.5 S 15 19 8 10 1013.9 1013.4 0.0
17/02:30am 22.0 16.8 -2.7 19 10.6 S 15 20 8 11 1014.1 1013.6 0.0
17/02:00am 22.0 17.3 -2.0 20 10.4 S 13 15 7 8 1014.2 1013.7 0.0
17/01:30am 22.8 17.8 -1.3 20 10.7 S 15 19 8 10 1014.3 1013.8 0.0
17/01:00am 22.9 18.4 -0.6 21 10.6 SSE 13 17 7 9 1014.5 1014.0 0.0
17/12:30am 24.3 18.7 -0.1 20 11.2 SSE 19 24 10 13 1014.6 1014.1 0.0
17/12:00am 25.2 19.6 0.0 19 11.7 S 19 26 10 14 1014.5 1014.0 0.0
 
Date/Time
EDT
Temp
°C
App
Temp
°C
Dew
Point
°C
Rel
Hum
%
Delta-T
°C
Wind Press
QNH
hPa
Press
MSL
hPa
Rain since
9am
mm
Dir  Spd
km/h
Gust
km/h
Spd
kts
Gust
kts
16/11:30pm 24.9 20.4 -0.3 19 11.6 S 13 15 7 8 1014.9 1014.4 0.0
16/11:00pm 25.9 21.0 -0.2 18 12.1 S 15 17 8 9 1014.7 1014.2 0.0

Other Formats:

Comma delimited format used in spreadsheet applications
http://www.bom.gov.au/fwo/IDN60801/IDN60801.94703.axf

JavaScript Object Notation format (JSON) in row-major order
http://www.bom.gov.au/fwo/IDN60801/IDN60801.94703.json